sensor_id;sensor_type;location;lat;lon;timestamp;P1;durP1;ratioP1;P2;durP2;ratioP2
18647;SDS011;9453;50.294;18.644;2024-03-08T05:03:28;46.67;;;19.23;;
18647;SDS011;9453;50.294;18.644;2024-03-08T05:05:55;44.17;;;18.27;;
18647;SDS011;9453;50.294;18.644;2024-03-08T05:08:22;47.57;;;19.87;;
18647;SDS011;9453;50.294;18.644;2024-03-08T05:10:49;51.03;;;19.03;;
18647;SDS011;9453;50.294;18.644;2024-03-08T05:13:16;44.30;;;18.47;;
18647;SDS011;9453;50.294;18.644;2024-03-08T05:15:43;55.47;;;21.47;;
18647;SDS011;9453;50.294;18.644;2024-03-08T05:18:14;49.67;;;19.90;;
18647;SDS011;9453;50.294;18.644;2024-03-08T05:20:42;47.77;;;18.67;;
18647;SDS011;9453;50.294;18.644;2024-03-08T05:23:09;49.27;;;20.70;;
18647;SDS011;9453;50.294;18.644;2024-03-08T05:25:36;49.13;;;19.83;;
18647;SDS011;9453;50.294;18.644;2024-03-08T05:28:03;49.60;;;19.30;;
18647;SDS011;9453;50.294;18.644;2024-03-08T05:30:30;45.37;;;18.37;;
18647;SDS011;9453;50.294;18.644;2024-03-08T05:32:57;47.73;;;19.33;;
18647;SDS011;9453;50.294;18.644;2024-03-08T05:35:25;43.97;;;19.43;;
18647;SDS011;9453;50.294;18.644;2024-03-08T05:37:53;43.90;;;19.07;;
18647;SDS011;9453;50.294;18.644;2024-03-08T05:40:20;47.27;;;18.90;;
18647;SDS011;9453;50.294;18.644;2024-03-08T05:42:47;48.27;;;18.67;;
18647;SDS011;9453;50.294;18.644;2024-03-08T05:45:13;42.67;;;18.30;;
18647;SDS011;9453;50.294;18.644;2024-03-08T05:47:40;41.13;;;16.97;;
18647;SDS011;9453;50.294;18.644;2024-03-08T05:50:08;44.00;;;19.30;;
18647;SDS011;9453;50.294;18.644;2024-03-08T05:52:36;41.07;;;17.33;;
18647;SDS011;9453;50.294;18.644;2024-03-08T05:55:05;40.13;;;17.20;;
18647;SDS011;9453;50.294;18.644;2024-03-08T05:57:34;43.93;;;18.67;;
18647;SDS011;9453;50.294;18.644;2024-03-08T06:00:03;40.20;;;16.80;;
18647;SDS011;9453;50.294;18.644;2024-03-08T06:02:30;40.60;;;17.93;;
18647;SDS011;9453;50.294;18.644;2024-03-08T06:04:57;53.43;;;21.17;;
18647;SDS011;9453;50.294;18.644;2024-03-08T06:07:27;39.23;;;16.80;;
18647;SDS011;9453;50.294;18.644;2024-03-08T06:09:55;43.17;;;18.83;;
18647;SDS011;9453;50.294;18.644;2024-03-08T06:12:23;41.20;;;16.70;;
18647;SDS011;9453;50.294;18.644;2024-03-08T06:14:53;43.63;;;18.30;;
18647;SDS011;9453;50.294;18.644;2024-03-08T06:17:21;49.67;;;19.23;;
18647;SDS011;9453;50.294;18.644;2024-03-08T06:19:50;48.57;;;21.07;;
18647;SDS011;9453;50.294;18.644;2024-03-08T06:22:17;46.00;;;20.07;;
18647;SDS011;9453;50.294;18.644;2024-03-08T06:24:45;48.57;;;19.53;;
18647;SDS011;9453;50.294;18.644;2024-03-08T06:27:12;49.03;;;19.10;;
18647;SDS011;9453;50.294;18.644;2024-03-08T06:29:40;45.50;;;17.30;;
18647;SDS011;9453;50.294;18.644;2024-03-08T06:32:07;37.53;;;16.10;;
18647;SDS011;9453;50.294;18.644;2024-03-08T06:34:34;46.23;;;17.20;;
18647;SDS011;9453;50.294;18.644;2024-03-08T06:37:01;40.53;;;17.40;;
18647;SDS011;9453;50.294;18.644;2024-03-08T06:39:28;40.43;;;17.00;;
18647;SDS011;9453;50.294;18.644;2024-03-08T06:41:56;39.63;;;18.60;;
18647;SDS011;9453;50.294;18.644;2024-03-08T06:44:23;40.03;;;17.67;;
18647;SDS011;9453;50.294;18.644;2024-03-08T06:46:52;45.07;;;18.40;;
18647;SDS011;9453;50.294;18.644;2024-03-08T06:49:19;38.57;;;16.97;;
18647;SDS011;9453;50.294;18.644;2024-03-08T06:51:46;41.00;;;18.20;;
18647;SDS011;9453;50.294;18.644;2024-03-08T06:54:13;43.80;;;18.47;;
18647;SDS011;9453;50.294;18.644;2024-03-08T06:56:40;44.90;;;19.03;;
18647;SDS011;9453;50.294;18.644;2024-03-08T06:59:06;41.57;;;18.37;;
18647;SDS011;9453;50.294;18.644;2024-03-08T07:01:35;44.63;;;19.23;;
18647;SDS011;9453;50.294;18.644;2024-03-08T07:04:04;41.57;;;18.00;;
18647;SDS011;9453;50.294;18.644;2024-03-08T07:06:32;34.73;;;15.67;;
18647;SDS011;9453;50.294;18.644;2024-03-08T07:08:59;38.50;;;17.73;;
18647;SDS011;9453;50.294;18.644;2024-03-08T07:11:27;36.70;;;15.23;;
18647;SDS011;9453;50.294;18.644;2024-03-08T07:13:54;30.97;;;14.57;;
18647;SDS011;9453;50.294;18.644;2024-03-08T07:16:21;39.37;;;14.37;;
18647;SDS011;9453;50.294;18.644;2024-03-08T07:18:49;34.60;;;15.70;;
18647;SDS011;9453;50.294;18.644;2024-03-08T07:21:19;35.90;;;16.13;;
18647;SDS011;9453;50.294;18.644;2024-03-08T07:23:46;37.03;;;15.10;;
18647;SDS011;9453;50.294;18.644;2024-03-08T07:26:27;29.30;;;14.07;;
18647;SDS011;9453;50.294;18.644;2024-03-08T07:28:55;32.77;;;15.07;;
18647;SDS011;9453;50.294;18.644;2024-03-08T07:31:24;27.77;;;13.30;;
18647;SDS011;9453;50.294;18.644;2024-03-08T07:33:56;25.43;;;12.63;;
18647;SDS011;9453;50.294;18.644;2024-03-08T07:36:25;34.07;;;14.97;;
18647;SDS011;9453;50.294;18.644;2024-03-08T07:38:52;30.63;;;14.30;;
18647;SDS011;9453;50.294;18.644;2024-03-08T07:41:19;29.67;;;13.90;;
18647;SDS011;9453;50.294;18.644;2024-03-08T07:43:46;32.10;;;14.20;;
18647;SDS011;9453;50.294;18.644;2024-03-08T07:46:14;29.57;;;13.33;;
18647;SDS011;9453;50.294;18.644;2024-03-08T07:48:43;29.73;;;13.83;;
18647;SDS011;9453;50.294;18.644;2024-03-08T07:51:11;29.40;;;12.63;;
18647;SDS011;9453;50.294;18.644;2024-03-08T07:53:39;28.50;;;13.43;;
18647;SDS011;9453;50.294;18.644;2024-03-08T07:56:06;28.93;;;13.93;;
18647;SDS011;9453;50.294;18.644;2024-03-08T07:58:36;31.93;;;14.43;;
18647;SDS011;9453;50.294;18.644;2024-03-08T08:01:03;28.87;;;12.87;;
18647;SDS011;9453;50.294;18.644;2024-03-08T08:03:30;30.30;;;13.70;;
18647;SDS011;9453;50.294;18.644;2024-03-08T08:05:57;28.87;;;13.43;;
18647;SDS011;9453;50.294;18.644;2024-03-08T08:08:24;34.60;;;15.07;;
18647;SDS011;9453;50.294;18.644;2024-03-08T08:10:53;29.17;;;13.50;;
18647;SDS011;9453;50.294;18.644;2024-03-08T08:13:19;29.30;;;14.77;;
18647;SDS011;9453;50.294;18.644;2024-03-08T08:15:47;33.03;;;15.07;;
18647;SDS011;9453;50.294;18.644;2024-03-08T08:18:14;30.70;;;14.57;;
18647;SDS011;9453;50.294;18.644;2024-03-08T08:20:42;33.33;;;14.27;;
18647;SDS011;9453;50.294;18.644;2024-03-08T08:23:09;32.80;;;15.37;;
18647;SDS011;9453;50.294;18.644;2024-03-08T08:25:37;34.27;;;14.43;;
18647;SDS011;9453;50.294;18.644;2024-03-08T08:28:05;34.17;;;15.23;;
18647;SDS011;9453;50.294;18.644;2024-03-08T08:30:32;37.10;;;14.97;;
18647;SDS011;9453;50.294;18.644;2024-03-08T08:32:59;32.07;;;14.43;;
18647;SDS011;9453;50.294;18.644;2024-03-08T08:35:26;29.70;;;13.13;;
18647;SDS011;9453;50.294;18.644;2024-03-08T08:37:53;34.80;;;15.20;;
18647;SDS011;9453;50.294;18.644;2024-03-08T08:40:21;28.87;;;13.33;;
18647;SDS011;9453;50.294;18.644;2024-03-08T08:42:47;28.20;;;13.43;;
18647;SDS011;9453;50.294;18.644;2024-03-08T08:45:16;34.37;;;13.57;;
18647;SDS011;9453;50.294;18.644;2024-03-08T08:47:43;31.93;;;15.03;;
18647;SDS011;9453;50.294;18.644;2024-03-08T08:50:12;32.70;;;15.17;;
18647;SDS011;9453;50.294;18.644;2024-03-08T08:52:39;38.33;;;15.83;;
18647;SDS011;9453;50.294;18.644;2024-03-08T08:55:08;32.00;;;15.33;;
18647;SDS011;9453;50.294;18.644;2024-03-08T08:57:39;30.33;;;14.90;;
18647;SDS011;9453;50.294;18.644;2024-03-08T09:00:07;32.13;;;15.03;;
18647;SDS011;9453;50.294;18.644;2024-03-08T09:02:41;29.70;;;13.27;;
18647;SDS011;9453;50.294;18.644;2024-03-08T09:05:08;31.00;;;15.13;;
18647;SDS011;9453;50.294;18.644;2024-03-08T09:07:35;31.73;;;13.77;;
18647;SDS011;9453;50.294;18.644;2024-03-08T09:10:02;31.47;;;14.20;;
18647;SDS011;9453;50.294;18.644;2024-03-08T09:12:30;28.73;;;14.43;;
18647;SDS011;9453;50.294;18.644;2024-03-08T09:14:57;31.57;;;14.57;;
18647;SDS011;9453;50.294;18.644;2024-03-08T09:17:25;33.67;;;14.93;;
18647;SDS011;9453;50.294;18.644;2024-03-08T09:19:53;32.93;;;15.33;;
18647;SDS011;9453;50.294;18.644;2024-03-08T09:22:20;32.20;;;14.20;;
18647;SDS011;9453;50.294;18.644;2024-03-08T09:24:47;29.13;;;12.50;;
18647;SDS011;9453;50.294;18.644;2024-03-08T09:27:14;27.83;;;13.10;;
18647;SDS011;9453;50.294;18.644;2024-03-08T09:29:41;29.77;;;13.93;;
18647;SDS011;9453;50.294;18.644;2024-03-08T09:32:09;30.37;;;14.53;;
18647;SDS011;9453;50.294;18.644;2024-03-08T09:34:36;31.47;;;14.83;;
18647;SDS011;9453;50.294;18.644;2024-03-08T09:37:05;34.20;;;15.50;;
18647;SDS011;9453;50.294;18.644;2024-03-08T09:39:33;32.47;;;15.13;;
18647;SDS011;9453;50.294;18.644;2024-03-08T09:42:00;28.20;;;13.70;;
18647;SDS011;9453;50.294;18.644;2024-03-08T09:44:28;30.23;;;14.43;;
18647;SDS011;9453;50.294;18.644;2024-03-08T09:46:55;30.77;;;14.70;;
18647;SDS011;9453;50.294;18.644;2024-03-08T09:49:23;26.87;;;13.40;;
18647;SDS011;9453;50.294;18.644;2024-03-08T09:51:50;37.03;;;16.37;;
18647;SDS011;9453;50.294;18.644;2024-03-08T09:54:19;32.50;;;15.77;;
18647;SDS011;9453;50.294;18.644;2024-03-08T09:56:47;38.20;;;16.70;;
18647;SDS011;9453;50.294;18.644;2024-03-08T09:59:17;35.67;;;15.50;;
18647;SDS011;9453;50.294;18.644;2024-03-08T10:02:09;33.67;;;16.30;;
18647;SDS011;9453;50.294;18.644;2024-03-08T10:04:40;33.40;;;14.50;;
18647;SDS011;9453;50.294;18.644;2024-03-08T10:07:08;29.53;;;14.97;;
18647;SDS011;9453;50.294;18.644;2024-03-08T10:09:36;34.17;;;14.60;;
18647;SDS011;9453;50.294;18.644;2024-03-08T10:12:04;32.67;;;14.47;;
18647;SDS011;9453;50.294;18.644;2024-03-08T10:14:31;41.40;;;17.03;;
18647;SDS011;9453;50.294;18.644;2024-03-08T10:16:58;30.17;;;15.20;;
18647;SDS011;9453;50.294;18.644;2024-03-08T10:19:25;27.50;;;14.47;;
18647;SDS011;9453;50.294;18.644;2024-03-08T10:21:53;31.33;;;13.83;;
18647;SDS011;9453;50.294;18.644;2024-03-08T10:24:22;26.23;;;11.97;;
18647;SDS011;9453;50.294;18.644;2024-03-08T10:26:52;29.60;;;13.27;;
18647;SDS011;9453;50.294;18.644;2024-03-08T10:29:19;30.07;;;12.73;;
18647;SDS011;9453;50.294;18.644;2024-03-08T10:31:46;31.73;;;13.90;;
18647;SDS011;9453;50.294;18.644;2024-03-08T10:34:15;28.33;;;13.10;;
18647;SDS011;9453;50.294;18.644;2024-03-08T10:36:42;28.03;;;12.50;;
18647;SDS011;9453;50.294;18.644;2024-03-08T10:39:17;29.93;;;13.50;;
18647;SDS011;9453;50.294;18.644;2024-03-08T10:41:49;28.27;;;14.20;;
18647;SDS011;9453;50.294;18.644;2024-03-08T10:44:38;30.47;;;13.60;;
18647;SDS011;9453;50.294;18.644;2024-03-08T10:47:13;28.10;;;13.93;;
18647;SDS011;9453;50.294;18.644;2024-03-08T10:49:50;25.70;;;12.80;;
18647;SDS011;9453;50.294;18.644;2024-03-08T10:52:20;31.10;;;13.57;;
18647;SDS011;9453;50.294;18.644;2024-03-08T10:54:48;37.33;;;15.27;;
18647;SDS011;9453;50.294;18.644;2024-03-08T10:57:18;30.90;;;14.90;;
18647;SDS011;9453;50.294;18.644;2024-03-08T10:59:47;26.83;;;13.47;;
18647;SDS011;9453;50.294;18.644;2024-03-08T11:02:14;32.57;;;14.27;;
18647;SDS011;9453;50.294;18.644;2024-03-08T11:04:47;32.27;;;14.70;;
18647;SDS011;9453;50.294;18.644;2024-03-08T11:07:15;33.57;;;15.13;;
18647;SDS011;9453;50.294;18.644;2024-03-08T11:09:44;30.07;;;14.13;;
18647;SDS011;9453;50.294;18.644;2024-03-08T11:12:35;30.07;;;14.27;;
18647;SDS011;9453;50.294;18.644;2024-03-08T11:15:09;33.80;;;15.10;;
18647;SDS011;9453;50.294;18.644;2024-03-08T11:17:41;32.27;;;15.07;;
18647;SDS011;9453;50.294;18.644;2024-03-08T11:20:13;28.97;;;13.90;;
18647;SDS011;9453;50.294;18.644;2024-03-08T11:22:42;30.10;;;15.03;;
18647;SDS011;9453;50.294;18.644;2024-03-08T11:28:07;29.87;;;14.30;;
18647;SDS011;9453;50.294;18.644;2024-03-08T11:30:36;34.33;;;14.63;;
18647;SDS011;9453;50.294;18.644;2024-03-08T11:33:03;30.33;;;14.83;;
18647;SDS011;9453;50.294;18.644;2024-03-08T11:35:31;35.47;;;14.00;;
18647;SDS011;9453;50.294;18.644;2024-03-08T11:37:59;29.07;;;13.47;;
18647;SDS011;9453;50.294;18.644;2024-03-08T11:40:26;30.17;;;13.87;;
18647;SDS011;9453;50.294;18.644;2024-03-08T11:42:53;29.90;;;12.63;;
18647;SDS011;9453;50.294;18.644;2024-03-08T11:45:22;26.90;;;12.67;;
18647;SDS011;9453;50.294;18.644;2024-03-08T11:47:50;25.47;;;12.43;;
18647;SDS011;9453;50.294;18.644;2024-03-08T11:50:18;36.17;;;15.30;;
18647;SDS011;9453;50.294;18.644;2024-03-08T11:52:48;31.30;;;13.97;;
18647;SDS011;9453;50.294;18.644;2024-03-08T11:55:16;31.37;;;13.97;;
18647;SDS011;9453;50.294;18.644;2024-03-08T11:57:44;30.30;;;13.80;;
18647;SDS011;9453;50.294;18.644;2024-03-08T12:00:14;27.73;;;12.57;;
18647;SDS011;9453;50.294;18.644;2024-03-08T12:03:02;28.97;;;14.07;;
18647;SDS011;9453;50.294;18.644;2024-03-08T12:05:29;31.53;;;12.97;;
18647;SDS011;9453;50.294;18.644;2024-03-08T12:07:58;30.90;;;13.37;;
18647;SDS011;9453;50.294;18.644;2024-03-08T12:10:25;27.20;;;12.47;;
18647;SDS011;9453;50.294;18.644;2024-03-08T12:12:53;25.20;;;12.57;;
18647;SDS011;9453;50.294;18.644;2024-03-08T12:15:22;26.30;;;12.60;;
18647;SDS011;9453;50.294;18.644;2024-03-08T12:17:51;24.33;;;11.73;;
18647;SDS011;9453;50.294;18.644;2024-03-08T12:20:21;28.60;;;13.17;;
18647;SDS011;9453;50.294;18.644;2024-03-08T12:22:48;28.17;;;13.30;;
18647;SDS011;9453;50.294;18.644;2024-03-08T12:25:17;26.27;;;13.40;;
18647;SDS011;9453;50.294;18.644;2024-03-08T12:27:45;32.07;;;15.20;;
18647;SDS011;9453;50.294;18.644;2024-03-08T12:30:19;25.37;;;13.40;;
18647;SDS011;9453;50.294;18.644;2024-03-08T12:32:52;25.57;;;13.13;;
18647;SDS011;9453;50.294;18.644;2024-03-08T12:35:24;29.73;;;13.37;;
18647;SDS011;9453;50.294;18.644;2024-03-08T12:37:53;30.90;;;12.80;;
18647;SDS011;9453;50.294;18.644;2024-03-08T12:40:25;33.23;;;14.70;;
18647;SDS011;9453;50.294;18.644;2024-03-08T12:42:53;26.83;;;13.27;;
18647;SDS011;9453;50.294;18.644;2024-03-08T12:45:21;31.37;;;14.63;;
18647;SDS011;9453;50.294;18.644;2024-03-08T12:47:49;35.53;;;14.23;;
18647;SDS011;9453;50.294;18.644;2024-03-08T12:50:16;31.40;;;14.47;;
18647;SDS011;9453;50.294;18.644;2024-03-08T12:52:45;30.40;;;14.27;;
18647;SDS011;9453;50.294;18.644;2024-03-08T12:55:13;27.70;;;13.77;;
18647;SDS011;9453;50.294;18.644;2024-03-08T12:57:43;31.50;;;14.23;;
18647;SDS011;9453;50.294;18.644;2024-03-08T13:00:10;30.00;;;14.60;;
18647;SDS011;9453;50.294;18.644;2024-03-08T13:02:44;26.33;;;12.47;;
18647;SDS011;9453;50.294;18.644;2024-03-08T13:05:10;34.13;;;13.83;;
18647;SDS011;9453;50.294;18.644;2024-03-08T13:07:39;33.47;;;14.37;;
18647;SDS011;9453;50.294;18.644;2024-03-08T13:10:12;28.43;;;14.03;;
18647;SDS011;9453;50.294;18.644;2024-03-08T13:12:40;27.47;;;12.73;;
18647;SDS011;9453;50.294;18.644;2024-03-08T13:15:07;29.33;;;12.93;;
18647;SDS011;9453;50.294;18.644;2024-03-08T13:17:36;24.73;;;11.50;;
18647;SDS011;9453;50.294;18.644;2024-03-08T13:20:05;28.23;;;12.83;;
18647;SDS011;9453;50.294;18.644;2024-03-08T13:22:34;28.83;;;11.73;;
18647;SDS011;9453;50.294;18.644;2024-03-08T13:25:01;33.50;;;14.07;;
18647;SDS011;9453;50.294;18.644;2024-03-08T13:27:31;27.23;;;11.97;;
18647;SDS011;9453;50.294;18.644;2024-03-08T13:29:58;29.20;;;12.33;;
18647;SDS011;9453;50.294;18.644;2024-03-08T13:32:25;33.97;;;15.63;;
18647;SDS011;9453;50.294;18.644;2024-03-08T13:34:52;33.00;;;15.83;;
18647;SDS011;9453;50.294;18.644;2024-03-08T13:37:20;31.87;;;14.23;;
18647;SDS011;9453;50.294;18.644;2024-03-08T13:39:47;30.50;;;13.50;;
18647;SDS011;9453;50.294;18.644;2024-03-08T13:42:14;30.73;;;13.93;;
18647;SDS011;9453;50.294;18.644;2024-03-08T13:44:46;33.10;;;15.60;;
18647;SDS011;9453;50.294;18.644;2024-03-08T13:47:13;31.43;;;15.53;;
18647;SDS011;9453;50.294;18.644;2024-03-08T13:49:40;34.60;;;15.60;;
18647;SDS011;9453;50.294;18.644;2024-03-08T13:52:08;31.20;;;15.07;;
18647;SDS011;9453;50.294;18.644;2024-03-08T13:54:35;29.67;;;14.80;;
18647;SDS011;9453;50.294;18.644;2024-03-08T13:57:03;30.20;;;13.97;;
18647;SDS011;9453;50.294;18.644;2024-03-08T13:59:32;33.03;;;14.83;;
18647;SDS011;9453;50.294;18.644;2024-03-08T14:02:01;41.10;;;17.97;;
18647;SDS011;9453;50.294;18.644;2024-03-08T14:04:29;34.13;;;16.10;;
18647;SDS011;9453;50.294;18.644;2024-03-08T14:06:56;31.33;;;15.57;;
18647;SDS011;9453;50.294;18.644;2024-03-08T14:09:28;45.40;;;17.10;;
18647;SDS011;9453;50.294;18.644;2024-03-08T14:11:56;33.53;;;15.60;;
18647;SDS011;9453;50.294;18.644;2024-03-08T14:14:23;35.57;;;16.13;;
18647;SDS011;9453;50.294;18.644;2024-03-08T14:16:50;34.37;;;15.70;;
18647;SDS011;9453;50.294;18.644;2024-03-08T14:19:20;39.80;;;18.20;;
18647;SDS011;9453;50.294;18.644;2024-03-08T14:24:20;40.87;;;17.77;;
18647;SDS011;9453;50.294;18.644;2024-03-08T14:26:47;35.83;;;17.00;;
18647;SDS011;9453;50.294;18.644;2024-03-08T14:29:24;37.57;;;16.73;;
18647;SDS011;9453;50.294;18.644;2024-03-08T14:31:54;35.13;;;17.43;;
18647;SDS011;9453;50.294;18.644;2024-03-08T14:34:23;36.13;;;17.83;;
18647;SDS011;9453;50.294;18.644;2024-03-08T14:36:58;36.10;;;16.57;;
18647;SDS011;9453;50.294;18.644;2024-03-08T14:39:25;32.83;;;14.63;;
18647;SDS011;9453;50.294;18.644;2024-03-08T14:41:54;35.63;;;16.17;;
18647;SDS011;9453;50.294;18.644;2024-03-08T14:44:26;41.60;;;18.07;;
18647;SDS011;9453;50.294;18.644;2024-03-08T14:46:55;35.13;;;17.63;;
18647;SDS011;9453;50.294;18.644;2024-03-08T14:49:24;38.80;;;17.00;;
18647;SDS011;9453;50.294;18.644;2024-03-08T14:51:59;39.23;;;17.67;;
18647;SDS011;9453;50.294;18.644;2024-03-08T14:54:26;37.07;;;18.37;;
18647;SDS011;9453;50.294;18.644;2024-03-08T14:56:53;41.53;;;18.40;;
18647;SDS011;9453;50.294;18.644;2024-03-08T14:59:21;44.13;;;20.20;;
18647;SDS011;9453;50.294;18.644;2024-03-08T15:01:50;41.37;;;19.23;;
18647;SDS011;9453;50.294;18.644;2024-03-08T15:04:17;43.73;;;18.27;;
18647;SDS011;9453;50.294;18.644;2024-03-08T15:06:51;36.67;;;16.43;;
18647;SDS011;9453;50.294;18.644;2024-03-08T15:09:18;44.93;;;21.63;;
18647;SDS011;9453;50.294;18.644;2024-03-08T15:11:46;43.13;;;20.67;;
18647;SDS011;9453;50.294;18.644;2024-03-08T15:14:14;45.27;;;19.50;;
18647;SDS011;9453;50.294;18.644;2024-03-08T15:16:41;45.83;;;19.40;;
18647;SDS011;9453;50.294;18.644;2024-03-08T15:19:13;44.40;;;19.67;;
18647;SDS011;9453;50.294;18.644;2024-03-08T15:21:40;49.30;;;19.57;;
18647;SDS011;9453;50.294;18.644;2024-03-08T15:24:14;45.37;;;19.80;;
18647;SDS011;9453;50.294;18.644;2024-03-08T15:26:46;43.17;;;18.97;;
18647;SDS011;9453;50.294;18.644;2024-03-08T15:29:15;45.60;;;20.70;;
18647;SDS011;9453;50.294;18.644;2024-03-08T15:31:45;48.30;;;20.67;;
18647;SDS011;9453;50.294;18.644;2024-03-08T15:34:12;48.53;;;20.80;;
18647;SDS011;9453;50.294;18.644;2024-03-08T15:36:41;43.67;;;21.47;;
18647;SDS011;9453;50.294;18.644;2024-03-08T15:39:12;45.80;;;21.10;;
18647;SDS011;9453;50.294;18.644;2024-03-08T15:41:39;46.88;;;22.08;;
18647;SDS011;9453;50.294;18.644;2024-03-08T15:46:34;43.17;;;20.13;;
18647;SDS011;9453;50.294;18.644;2024-03-08T15:49:01;34.90;;;17.90;;
18647;SDS011;9453;50.294;18.644;2024-03-08T15:51:30;37.00;;;18.17;;
18647;SDS011;9453;50.294;18.644;2024-03-08T15:53:57;40.67;;;18.73;;
18647;SDS011;9453;50.294;18.644;2024-03-08T15:56:26;40.27;;;17.57;;
18647;SDS011;9453;50.294;18.644;2024-03-08T15:58:53;40.47;;;17.73;;
18647;SDS011;9453;50.294;18.644;2024-03-08T16:01:21;44.23;;;18.17;;
18647;SDS011;9453;50.294;18.644;2024-03-08T16:03:49;41.10;;;19.60;;
18647;SDS011;9453;50.294;18.644;2024-03-08T16:06:16;34.07;;;16.67;;
18647;SDS011;9453;50.294;18.644;2024-03-08T16:08:46;38.97;;;17.47;;
18647;SDS011;9453;50.294;18.644;2024-03-08T16:11:13;44.70;;;19.10;;
18647;SDS011;9453;50.294;18.644;2024-03-08T16:13:41;40.03;;;17.80;;
18647;SDS011;9453;50.294;18.644;2024-03-08T16:16:08;42.03;;;18.47;;
18647;SDS011;9453;50.294;18.644;2024-03-08T16:18:35;48.83;;;20.03;;
18647;SDS011;9453;50.294;18.644;2024-03-08T16:21:02;41.70;;;18.50;;
18647;SDS011;9453;50.294;18.644;2024-03-08T16:23:30;45.13;;;20.17;;
18647;SDS011;9453;50.294;18.644;2024-03-08T16:25:57;41.43;;;16.93;;
18647;SDS011;9453;50.294;18.644;2024-03-08T16:28:24;44.70;;;18.70;;
18647;SDS011;9453;50.294;18.644;2024-03-08T16:30:54;37.60;;;17.20;;
18647;SDS011;9453;50.294;18.644;2024-03-08T16:33:21;45.80;;;20.17;;
18647;SDS011;9453;50.294;18.644;2024-03-08T16:35:48;43.20;;;18.20;;
18647;SDS011;9453;50.294;18.644;2024-03-08T16:38:16;43.77;;;19.50;;
18647;SDS011;9453;50.294;18.644;2024-03-08T16:40:44;42.63;;;19.03;;
18647;SDS011;9453;50.294;18.644;2024-03-08T16:43:12;46.63;;;20.27;;
18647;SDS011;9453;50.294;18.644;2024-03-08T16:45:40;40.97;;;18.93;;
18647;SDS011;9453;50.294;18.644;2024-03-08T16:48:09;46.70;;;20.03;;
18647;SDS011;9453;50.294;18.644;2024-03-08T16:50:37;43.37;;;18.87;;
18647;SDS011;9453;50.294;18.644;2024-03-08T16:53:06;52.00;;;20.90;;
18647;SDS011;9453;50.294;18.644;2024-03-08T16:55:33;60.57;;;23.50;;
18647;SDS011;9453;50.294;18.644;2024-03-08T16:58:00;58.13;;;22.87;;
18647;SDS011;9453;50.294;18.644;2024-03-08T17:00:29;53.20;;;21.87;;
18647;SDS011;9453;50.294;18.644;2024-03-08T17:02:57;53.40;;;22.77;;
18647;SDS011;9453;50.294;18.644;2024-03-08T17:05:26;56.60;;;20.77;;
18647;SDS011;9453;50.294;18.644;2024-03-08T17:07:54;51.57;;;20.43;;
18647;SDS011;9453;50.294;18.644;2024-03-08T17:10:22;51.03;;;20.97;;
18647;SDS011;9453;50.294;18.644;2024-03-08T17:12:52;48.30;;;20.93;;
18647;SDS011;9453;50.294;18.644;2024-03-08T17:15:21;53.17;;;20.33;;
18647;SDS011;9453;50.294;18.644;2024-03-08T17:17:49;46.53;;;19.50;;
18647;SDS011;9453;50.294;18.644;2024-03-08T17:20:18;53.73;;;20.80;;
18647;SDS011;9453;50.294;18.644;2024-03-08T17:22:47;43.50;;;18.97;;
18647;SDS011;9453;50.294;18.644;2024-03-08T17:25:16;45.87;;;18.00;;
18647;SDS011;9453;50.294;18.644;2024-03-08T17:27:46;41.83;;;17.50;;
18647;SDS011;9453;50.294;18.644;2024-03-08T17:30:16;40.10;;;16.97;;
18647;SDS011;9453;50.294;18.644;2024-03-08T17:32:47;40.57;;;17.97;;
18647;SDS011;9453;50.294;18.644;2024-03-08T17:35:15;56.10;;;21.73;;
18647;SDS011;9453;50.294;18.644;2024-03-08T17:37:44;52.67;;;22.67;;
18647;SDS011;9453;50.294;18.644;2024-03-08T17:40:15;52.47;;;22.27;;
18647;SDS011;9453;50.294;18.644;2024-03-08T17:42:47;53.73;;;23.43;;
18647;SDS011;9453;50.294;18.644;2024-03-08T17:45:14;57.87;;;23.97;;
18647;SDS011;9453;50.294;18.644;2024-03-08T17:47:43;65.23;;;23.83;;
18647;SDS011;9453;50.294;18.644;2024-03-08T17:50:10;52.10;;;22.40;;
18647;SDS011;9453;50.294;18.644;2024-03-08T17:52:39;47.07;;;21.53;;
18647;SDS011;9453;50.294;18.644;2024-03-08T17:55:09;47.03;;;20.57;;
18647;SDS011;9453;50.294;18.644;2024-03-08T17:57:39;55.63;;;24.07;;
18647;SDS011;9453;50.294;18.644;2024-03-08T18:00:07;69.60;;;27.63;;
18647;SDS011;9453;50.294;18.644;2024-03-08T18:02:42;55.87;;;23.93;;
18647;SDS011;9453;50.294;18.644;2024-03-08T18:05:11;63.00;;;26.43;;
18647;SDS011;9453;50.294;18.644;2024-03-08T18:07:39;61.60;;;25.27;;
18647;SDS011;9453;50.294;18.644;2024-03-08T18:10:07;71.73;;;29.47;;
18647;SDS011;9453;50.294;18.644;2024-03-08T18:12:43;66.73;;;27.60;;
18647;SDS011;9453;50.294;18.644;2024-03-08T18:15:16;51.90;;;22.97;;
18647;SDS011;9453;50.294;18.644;2024-03-08T18:17:50;59.30;;;23.70;;
18647;SDS011;9453;50.294;18.644;2024-03-08T18:20:17;64.27;;;25.63;;
18647;SDS011;9453;50.294;18.644;2024-03-08T18:22:46;67.13;;;25.80;;
18647;SDS011;9453;50.294;18.644;2024-03-08T18:25:15;62.60;;;25.07;;
18647;SDS011;9453;50.294;18.644;2024-03-08T18:27:45;58.77;;;23.30;;
18647;SDS011;9453;50.294;18.644;2024-03-08T18:30:12;59.37;;;23.93;;
18647;SDS011;9453;50.294;18.644;2024-03-08T18:32:42;56.20;;;23.87;;
18647;SDS011;9453;50.294;18.644;2024-03-08T18:35:10;75.60;;;28.27;;
18647;SDS011;9453;50.294;18.644;2024-03-08T18:37:37;64.27;;;26.93;;
18647;SDS011;9453;50.294;18.644;2024-03-08T18:40:06;53.77;;;22.50;;
18647;SDS011;9453;50.294;18.644;2024-03-08T18:42:39;55.80;;;24.40;;
18647;SDS011;9453;50.294;18.644;2024-03-08T18:45:07;54.07;;;22.73;;
18647;SDS011;9453;50.294;18.644;2024-03-08T18:47:36;64.03;;;24.57;;
18647;SDS011;9453;50.294;18.644;2024-03-08T18:50:04;65.53;;;26.43;;
18647;SDS011;9453;50.294;18.644;2024-03-08T18:52:32;86.83;;;31.93;;
18647;SDS011;9453;50.294;18.644;2024-03-08T18:54:59;121.73;;;40.90;;
18647;SDS011;9453;50.294;18.644;2024-03-08T18:57:26;227.10;;;60.63;;
18647;SDS011;9453;50.294;18.644;2024-03-08T18:59:55;219.13;;;58.90;;
18647;SDS011;9453;50.294;18.644;2024-03-08T19:02:22;239.27;;;59.80;;
18647;SDS011;9453;50.294;18.644;2024-03-08T19:04:49;286.47;;;65.07;;
18647;SDS011;9453;50.294;18.644;2024-03-08T19:07:18;189.57;;;54.33;;
18647;SDS011;9453;50.294;18.644;2024-03-08T19:09:47;153.50;;;42.33;;
18647;SDS011;9453;50.294;18.644;2024-03-08T19:12:15;127.20;;;38.33;;
18647;SDS011;9453;50.294;18.644;2024-03-08T19:14:43;114.23;;;32.73;;
18647;SDS011;9453;50.294;18.644;2024-03-08T19:17:13;98.17;;;32.07;;
18647;SDS011;9453;50.294;18.644;2024-03-08T19:19:40;92.67;;;29.77;;
18647;SDS011;9453;50.294;18.644;2024-03-08T19:22:07;76.13;;;26.93;;
18647;SDS011;9453;50.294;18.644;2024-03-08T19:24:34;64.67;;;25.53;;
18647;SDS011;9453;50.294;18.644;2024-03-08T19:27:01;59.60;;;24.67;;
18647;SDS011;9453;50.294;18.644;2024-03-08T19:29:32;60.07;;;25.33;;
18647;SDS011;9453;50.294;18.644;2024-03-08T19:32:00;62.23;;;23.90;;
18647;SDS011;9453;50.294;18.644;2024-03-08T19:34:28;53.67;;;23.23;;
18647;SDS011;9453;50.294;18.644;2024-03-08T19:36:56;56.30;;;22.10;;
18647;SDS011;9453;50.294;18.644;2024-03-08T19:39:23;56.07;;;21.50;;